Time;durP1;ratioP1;P1;durP2;ratioP2;P2;SDS_P1;SDS_P2;PMS_P1;PMS_P2;Temp;Humidity;BMP_temperature;BMP_pressure;BME280_temperature;BME280_humidity;BME280_pressure;Samples;Min_cycle;Max_cycle;Signal;HPM_P1;HPM_P2
2021/04/08 00:02:19;;;;;;;20.98;6.93;;;;;;;2.95;30.34;101329.47;5072156;28;20052;-81
2021/04/08 00:05:04;;;;;;;18.48;6.05;;;;;;;3.09;31.74;101320.00;5065304;28;20511;-80
2021/04/08 00:07:49;;;;;;;18.52;7.07;;;;;;;3.13;32.77;101331.84;5069706;28;20043;-81
2021/04/08 00:10:34;;;;;;;41.67;6.28;;;;;;;3.27;33.65;101338.47;5068499;28;20051;-81
2021/04/08 00:13:19;;;;;;;17.13;6.15;;;;;;;3.21;31.37;101336.78;5066336;28;20043;-81
2021/04/08 00:16:04;;;;;;;11.15;3.88;;;;;;;3.24;32.67;101335.47;5067992;28;20046;-80
2021/04/08 00:18:49;;;;;;;;;;;;;;;3.35;32.90;101329.94;5067376;28;20052;-81
2021/04/08 00:21:34;;;;;;;14.57;4.63;;;;;;;3.25;32.96;101332.50;5072217;28;19912;-80
2021/04/08 00:24:20;;;;;;;14.35;5.25;;;;;;;3.09;33.58;101324.53;5071064;28;20130;-81
2021/04/08 00:27:05;;;;;;;10.35;4.50;;;;;;;2.81;33.39;101330.91;5068691;28;20039;-81
2021/04/08 00:29:50;;;;;;;8.73;3.28;;;;;;;2.47;42.22;101322.94;5066111;28;20044;-81
2021/04/08 00:32:35;;;;;;;17.38;5.55;;;;;;;2.06;45.08;101331.41;5071234;28;20510;-82
2021/04/08 00:35:20;;;;;;;15.95;3.30;;;;;;;2.19;44.18;101331.06;5067893;28;20048;-80
2021/04/08 00:38:05;;;;;;;14.55;4.55;;;;;;;2.42;42.22;101330.09;5069862;28;20043;-80
2021/04/08 00:40:50;;;;;;;5.45;2.42;;;;;;;2.52;39.55;101325.69;5071154;28;20417;-80
2021/04/08 00:43:35;;;;;;;9.10;2.03;;;;;;;2.58;38.47;101330.06;5071831;28;20052;-82
2021/04/08 00:46:19;;;;;;;9.82;2.25;;;;;;;2.79;38.29;101335.72;5066219;28;20039;-81
2021/04/08 00:49:05;;;;;;;3.63;2.03;;;;;;;2.91;37.79;101331.84;5074192;28;20062;-81
2021/04/08 00:51:51;;;;;;;13.60;3.95;;;;;;;2.87;34.77;101337.97;5068056;28;20532;-80
2021/04/08 00:54:36;;;;;;;11.95;3.70;;;;;;;2.47;33.96;101347.09;5066603;28;20047;-80
2021/04/08 00:57:22;;;;;;;12.63;3.47;;;;;;;2.18;34.90;101350.94;5064010;28;20067;-81
2021/04/08 01:00:07;;;;;;;12.35;3.92;;;;;;;2.22;35.36;101352.06;5071359;28;20157;-80
2021/04/08 01:02:52;;;;;;;;;;;;;;;2.01;35.46;101350.09;5068746;28;20048;-81
2021/04/08 01:05:37;;;;;;;17.20;4.18;;;;;;;2.42;34.30;101354.25;5064908;28;19912;-81
2021/04/08 01:08:23;;;;;;;13.40;3.70;;;;;;;2.48;33.41;101351.41;5069501;28;20064;-81
2021/04/08 01:11:08;;;;;;;14.45;3.88;;;;;;;2.38;33.94;101345.06;5068453;28;20048;-81
2021/04/08 01:13:54;;;;;;;8.40;1.98;;;;;;;2.39;32.48;101344.78;5070658;28;20048;-81
2021/04/08 01:16:41;;;;;;;9.45;2.05;;;;;;;2.48;31.97;101346.03;5070740;28;20044;-80
2021/04/08 01:20:00;;;;;;;13.20;2.80;;;;;;;2.43;32.72;101348.63;5068257;28;20404;-81
2021/04/08 01:22:57;;;;;;;12.48;2.30;;;;;;;2.29;32.56;101341.13;5068304;28;20106;-79
2021/04/08 01:26:19;;;;;;;6.18;2.20;;;;;;;2.31;33.34;101347.91;5067957;28;20036;-81
2021/04/08 01:29:27;;;;;;;7.80;2.20;;;;;;;2.08;36.46;101362.28;5051407;28;20052;-81
2021/04/08 01:32:15;;;;;;;6.70;3.33;;;;;;;2.18;37.00;101353.59;5066342;28;20036;-81
2021/04/08 01:35:04;;;;;;;11.05;3.58;;;;;;;1.93;38.52;101362.03;5068976;28;20431;-81
2021/04/08 01:37:59;;;;;;;19.15;4.85;;;;;;;2.02;37.60;101357.91;5068546;28;20052;-81
2021/04/08 01:40:45;;;;;;;19.38;4.47;;;;;;;2.29;36.87;101351.88;5067889;28;20110;-80
2021/04/08 01:43:35;;;;;;;19.42;4.00;;;;;;;2.36;37.21;101356.03;5074570;28;20047;-80
2021/04/08 01:46:22;;;;;;;14.48;3.15;;;;;;;2.45;37.19;101357.25;5070681;28;20043;-80
2021/04/08 01:49:09;;;;;;;11.25;6.10;;;;;;;2.41;37.47;101344.56;5068611;28;20059;-81
2021/04/08 01:51:56;;;;;;;8.57;3.00;;;;;;;2.48;37.35;101348.72;5067578;28;20067;-81
2021/04/08 01:54:45;;;;;;;10.43;4.30;;;;;;;2.57;37.69;101347.22;5069497;28;20044;-80
2021/04/08 01:57:32;;;;;;;12.27;3.58;;;;;;;2.49;35.14;101357.56;5071176;28;20408;-81
2021/04/08 02:00:21;;;;;;;17.88;4.00;;;;;;;2.12;42.48;101350.03;5068906;28;20416;-81
2021/04/08 02:03:10;;;;;;;14.18;4.25;;;;;;;1.99;42.57;101357.56;5067389;28;20052;-80
2021/04/08 02:05:56;;;;;;;10.68;4.00;;;;;;;1.90;41.07;101365.19;5066224;28;20040;-79
2021/04/08 02:08:45;;;;;;;14.82;3.08;;;;;;;1.89;40.73;101357.38;5067593;28;20055;-81
2021/04/08 02:11:31;;;;;;;9.95;3.67;;;;;;;2.07;41.30;101360.66;5066643;28;20052;-81
2021/04/08 02:14:16;;;;;;;8.60;2.92;;;;;;;2.39;36.81;101360.91;5065198;28;20047;-81
2021/04/08 02:17:03;;;;;;;4.72;1.90;;;;;;;2.35;33.86;101357.09;5069012;28;20063;-80
2021/04/08 02:19:50;;;;;;;5.15;2.08;;;;;;;2.53;31.41;101359.53;5068489;28;20051;-81
2021/04/08 02:22:39;;;;;;;4.60;1.98;;;;;;;2.56;31.53;101360.88;5063825;28;20048;-80
2021/04/08 02:25:28;;;;;;;10.75;2.58;;;;;;;2.42;33.24;101367.66;5066273;28;20412;-81
2021/04/08 02:28:13;;;;;;;11.40;3.30;;;;;;;2.40;32.83;101364.41;5066515;28;20056;-81
2021/04/08 02:30:59;;;;;;;6.97;2.05;;;;;;;2.39;32.86;101371.63;5065922;28;20527;-80
2021/04/08 02:33:44;;;;;;;3.35;1.52;;;;;;;2.05;33.58;101370.00;5073436;28;20051;-83
2021/04/08 02:36:29;;;;;;;2.40;1.52;;;;;;;1.93;35.28;101370.06;5068497;28;20055;-76
2021/04/08 02:39:14;;;;;;;5.35;1.10;;;;;;;1.78;34.98;101369.00;5066564;28;20055;-80
2021/04/08 02:42:00;;;;;;;4.03;1.45;;;;;;;1.76;33.88;101369.25;5070613;28;20052;-81
2021/04/08 02:44:45;;;;;;;7.85;1.63;;;;;;;2.08;33.08;101374.91;5066045;28;20059;-81
2021/04/08 02:47:30;;;;;;;2.47;1.15;;;;;;;1.38;33.99;101369.84;5062892;28;20048;-81
2021/04/08 02:50:15;;;;;;;4.80;1.20;;;;;;;1.12;34.91;101373.06;5069208;28;20051;-80
2021/04/08 02:53:30;;;;;;;5.40;1.77;;;;;;;1.20;34.61;101378.06;5065696;28;20052;-80
2021/04/08 02:56:34;;;;;;;9.25;2.58;;;;;;;1.37;34.19;101370.94;5083861;28;20043;-84
2021/04/08 02:59:30;;;;;;;9.07;2.25;;;;;;;1.10;34.67;101367.16;5081313;28;20411;-84
2021/04/08 03:02:21;;;;;;;8.45;2.05;;;;;;;0.98;35.30;101361.00;5078135;28;20043;-84
2021/04/08 03:05:09;;;;;;;8.63;3.30;;;;;;;0.66;35.89;101356.00;5071292;28;20043;-84
2021/04/08 03:07:57;;;;;;;10.95;4.65;;;;;;;1.08;35.60;101361.19;5068474;22;20427;-80
2021/04/08 03:10:42;;;;;;;14.50;4.22;;;;;;;1.40;34.14;101366.94;5032473;28;20053;-80
2021/04/08 03:13:32;;;;;;;30.40;10.63;;;;;;;1.42;35.33;101357.63;5035329;28;20049;-79
2021/04/08 03:16:24;;;;;;;15.93;6.80;;;;;;;1.49;35.85;101352.91;5024829;28;20527;-80
2021/04/08 03:19:12;;;;;;;13.88;5.03;;;;;;;1.42;35.53;101349.59;5028221;28;20052;-80
2021/04/08 03:21:59;;;;;;;14.88;5.32;;;;;;;1.44;35.33;101354.69;5010697;28;20040;-79
2021/04/08 03:24:45;;;;;;;13.77;4.97;;;;;;;0.98;36.61;101353.78;5025161;28;20048;-80
2021/04/08 03:27:31;;;;;;;21.95;5.88;;;;;;;1.37;36.11;101352.16;5029212;28;20511;-79
2021/04/08 03:30:17;;;;;;;16.77;5.25;;;;;;;1.43;36.59;101343.16;5027363;28;20072;-80
2021/04/08 03:33:04;;;;;;;10.95;5.20;;;;;;;1.27;38.40;101342.03;5028063;28;20044;-80
2021/04/08 03:35:49;;;;;;;;;;;;;;;1.29;37.87;101348.00;5029761;28;20053;-80
2021/04/08 03:38:35;;;;;;;10.40;3.58;;;;;;;1.36;37.66;101352.41;5026108;28;19913;-79
2021/04/08 03:41:19;;;;;;;;;;;;;;;1.28;37.79;101359.75;5027907;28;20040;-80
2021/04/08 03:44:07;;;;;;;13.70;4.30;;;;;;;1.28;37.39;101357.06;5028146;28;19913;-79
2021/04/08 03:46:58;;;;;;;13.98;4.18;;;;;;;1.45;36.63;101349.09;5025930;28;20061;-80
2021/04/08 03:49:43;;;;;;;12.15;4.75;;;;;;;1.24;37.07;101344.41;5024340;28;20539;-80
2021/04/08 03:52:28;;;;;;;26.90;4.03;;;;;;;1.15;37.33;101353.84;5027514;28;20045;-80
2021/04/08 03:55:14;;;;;;;9.98;2.67;;;;;;;1.34;36.98;101351.81;5026446;28;20041;-79
2021/04/08 03:57:59;;;;;;;5.90;2.55;;;;;;;1.35;37.24;101346.22;5025530;28;20049;-80
2021/04/08 04:00:44;;;;;;;6.22;2.70;;;;;;;1.23;37.39;101348.13;5029988;28;20040;-80
2021/04/08 04:03:29;;;;;;;;;;;;;;;1.38;37.82;101350.28;5028985;28;20056;-78
2021/04/08 04:06:14;;;;;;;8.07;3.65;;;;;;;1.20;37.93;101359.31;5024197;28;19913;-80
2021/04/08 04:08:59;;;;;;;;;;;;;;;1.41;37.73;101355.19;5028252;28;20522;-79
2021/04/08 04:11:46;;;;;;;12.07;4.35;;;;;;;1.56;37.32;101356.28;5029507;28;19936;-80
2021/04/08 04:14:36;;;;;;;14.32;5.22;;;;;;;1.48;38.20;101364.69;5024697;28;20041;-80
2021/04/08 04:17:28;;;;;;;22.90;6.18;;;;;;;1.47;40.24;101354.22;5028923;28;20057;-79
2021/04/08 04:20:17;;;;;;;21.70;6.03;;;;;;;1.31;40.96;101366.50;5026316;28;20037;-80
2021/04/08 04:23:03;;;;;;;23.08;6.25;;;;;;;1.31;40.11;101360.34;5023755;28;20061;-80
2021/04/08 04:25:48;;;;;;;16.42;4.75;;;;;;;1.21;39.17;101352.91;5027820;28;20041;-80
2021/04/08 04:28:33;;;;;;;17.13;4.55;;;;;;;1.22;40.11;101359.88;5033182;28;20506;-80
2021/04/08 04:31:18;;;;;;;9.75;4.40;;;;;;;1.40;39.51;101358.91;5028010;28;20048;-79
2021/04/08 04:34:06;;;;;;;20.15;5.88;;;;;;;1.48;39.70;101364.69;5030410;28;20041;-80
2021/04/08 04:36:51;;;;;;;30.05;7.70;;;;;;;1.67;40.21;101366.16;5029647;28;20044;-79
2021/04/08 04:39:37;;;;;;;28.90;6.53;;;;;;;1.65;39.94;101368.25;5027494;28;20049;-81
2021/04/08 04:42:22;;;;;;;42.53;9.45;;;;;;;1.71;39.20;101375.31;5033742;28;20130;-80
2021/04/08 04:45:10;;;;;;;23.98;7.30;;;;;;;1.65;38.75;101370.91;5029772;28;20048;-79
2021/04/08 04:47:55;;;;;;;17.75;7.93;;;;;;;1.60;38.95;101378.88;5028047;28;20036;-78
2021/04/08 04:50:40;;;;;;;16.60;4.97;;;;;;;1.62;40.23;101384.00;5034158;28;20049;-79
2021/04/08 04:53:25;;;;;;;21.48;4.65;;;;;;;1.55;44.14;101384.13;5030912;28;20539;-79
2021/04/08 04:56:10;;;;;;;33.42;4.10;;;;;;;1.48;38.96;101386.13;5029584;28;20855;-79
2021/04/08 04:58:55;;;;;;;8.52;2.33;;;;;;;1.57;37.47;101397.31;5031969;28;20052;-76
2021/04/08 05:01:40;;;;;;;14.65;3.22;;;;;;;1.57;43.32;101390.06;5032620;28;20502;-78
2021/04/08 05:04:25;;;;;;;26.30;5.28;;;;;;;1.58;41.28;101389.00;5028317;28;20073;-79
2021/04/08 05:07:10;;;;;;;11.23;3.22;;;;;;;1.89;39.21;101392.25;5014935;28;20048;-79
2021/04/08 05:09:55;;;;;;;17.13;3.80;;;;;;;1.45;40.22;101400.00;5030044;28;20040;-83
2021/04/08 05:12:40;;;;;;;26.67;6.68;;;;;;;1.19;41.49;101396.00;5027546;28;20064;-77
2021/04/08 05:15:25;;;;;;;13.85;3.75;;;;;;;1.78;40.05;101406.53;5031428;28;20049;-78
2021/04/08 05:18:10;;;;;;;18.55;7.22;;;;;;;2.01;38.54;101403.72;5029657;28;20040;-78
2021/04/08 05:20:56;;;;;;;14.43;4.70;;;;;;;1.70;37.29;101411.22;5026398;28;20403;-79
2021/04/08 05:23:42;;;;;;;27.10;7.13;;;;;;;1.92;37.25;101408.69;5024119;28;20045;-77
2021/04/08 05:26:27;;;;;;;16.35;3.63;;;;;;;2.19;36.17;101414.22;5025824;28;20049;-80
2021/04/08 05:29:12;;;;;;;10.05;5.68;;;;;;;3.04;34.52;101413.94;5027655;28;20052;-77
2021/04/08 05:31:57;;;;;;;13.75;4.80;;;;;;;3.38;33.59;101412.78;5027827;28;20048;-76
2021/04/08 05:34:42;;;;;;;14.85;2.80;;;;;;;2.89;33.95;101421.81;5030325;28;20044;-78
2021/04/08 05:37:27;;;;;;;17.15;3.72;;;;;;;2.98;34.60;101421.13;5026989;28;20043;-79
2021/04/08 05:40:13;;;;;;;23.42;3.78;;;;;;;3.01;34.44;101420.63;5026676;28;20057;-79
2021/04/08 05:42:58;;;;;;;;;;;;;;;3.25;33.91;101426.56;5027937;28;20049;-79
2021/04/08 05:45:45;;;;;;;10.80;4.10;;;;;;;3.57;33.15;101423.22;5027658;28;19913;-79
2021/04/08 05:48:30;;;;;;;9.75;3.70;;;;;;;3.44;34.65;101430.59;5026220;28;20048;-79
2021/04/08 05:51:15;;;;;;;23.52;3.65;;;;;;;3.37;35.31;101435.34;5030587;28;20546;-79
2021/04/08 05:54:00;;;;;;;18.25;3.88;;;;;;;3.87;34.97;101429.75;5011951;28;20045;-79
2021/04/08 05:56:45;;;;;;;;;;;;;;;3.77;34.14;101432.31;5025702;28;20520;-79
2021/04/08 05:59:30;;;;;;;9.95;3.58;;;;;;;4.20;33.24;101433.31;5030292;28;20288;-79
2021/04/08 06:02:15;;;;;;;8.48;2.47;;;;;;;4.41;32.53;101428.91;5028735;28;20079;-79
2021/04/08 06:05:00;;;;;;;10.80;4.80;;;;;;;5.26;31.12;101434.06;5013035;28;20036;-79
2021/04/08 06:07:45;;;;;;;12.50;6.35;;;;;;;5.21;31.30;101444.00;5024645;28;20049;-79
2021/04/08 06:10:30;;;;;;;5.28;2.63;;;;;;;5.95;29.75;101442.72;5028561;28;20527;-79
2021/04/08 06:13:15;;;;;;;11.55;2.75;;;;;;;6.79;28.43;101444.94;5012435;28;20053;-79
2021/04/08 06:16:00;;;;;;;9.60;2.17;;;;;;;7.87;26.88;101449.75;5030995;28;20045;-79
2021/04/08 06:18:45;;;;;;;15.25;2.45;;;;;;;9.30;25.07;101453.75;5028850;28;20521;-79
2021/04/08 06:21:30;;;;;;;12.43;4.50;;;;;;;11.93;21.38;101456.84;5027083;28;20044;-78
2021/04/08 06:24:15;;;;;;;7.20;3.10;;;;;;;14.08;17.60;101460.75;5031364;28;20049;-79
2021/04/08 06:27:01;;;;;;;8.00;3.03;;;;;;;13.70;19.16;101463.25;5029303;28;20522;-79
2021/04/08 06:29:45;;;;;;;;;;;;;;;14.96;17.89;101464.75;5027810;28;20108;-79
2021/04/08 06:32:30;;;;;;;13.73;2.80;;;;;;;16.15;17.13;101472.72;5030115;28;19917;-80
2021/04/08 06:35:15;;;;;;;;;;;;;;;17.93;15.13;101480.50;5029995;28;20045;-79
2021/04/08 06:38:00;;;;;;;8.50;3.05;;;;;;;20.08;13.20;101495.00;5028191;28;19917;-79
2021/04/08 06:40:46;;;;;;;8.45;3.72;;;;;;;21.18;12.64;101498.06;5031740;28;20060;-80
2021/04/08 06:43:32;;;;;;;24.33;4.20;;;;;;;20.93;12.42;101494.81;5029418;28;20052;-79
2021/04/08 06:46:20;;;;;;;19.65;3.25;;;;;;;21.59;11.76;101493.63;5028508;28;20420;-79
2021/04/08 06:49:38;;;;;;;16.63;3.25;;;;;;;20.02;12.63;101499.97;5031927;28;20052;-80
2021/04/08 06:52:24;;;;;;;8.27;3.00;;;;;;;20.26;12.61;101492.63;5025890;28;20045;-79
2021/04/08 06:55:09;;;;;;;12.82;2.40;;;;;;;21.58;11.97;101492.03;5024818;28;20045;-80
2021/04/08 06:57:55;;;;;;;12.60;2.80;;;;;;;22.84;10.59;101499.75;5029918;28;20049;-80
2021/04/08 07:00:40;;;;;;;7.35;4.45;;;;;;;23.21;10.51;101496.16;5028642;28;20060;-80
2021/04/08 07:03:27;;;;;;;17.42;3.53;;;;;;;25.13;8.97;101510.03;5027147;28;20048;-81
2021/04/08 07:06:12;;;;;;;10.32;2.90;;;;;;;24.45;8.83;101503.44;5029355;28;20048;-79
2021/04/08 07:08:57;;;;;;;;;;;;;;;25.82;8.24;101515.25;5028868;28;20057;-79
2021/04/08 07:11:43;;;;;;;12.70;2.63;;;;;;;24.94;8.46;101522.31;5026564;28;19960;-80
2021/04/08 07:14:28;;;;;;;;;;;;;;;25.90;7.96;101528.81;5016912;28;20045;-80
2021/04/08 07:17:12;;;;;;;13.75;3.05;;;;;;;26.26;7.59;101523.94;5024507;28;20383;-80
2021/04/08 07:19:58;;;;;;;13.48;3.47;;;;;;;25.91;7.35;101537.94;5026972;28;20048;-80
2021/04/08 07:22:43;;;;;;;7.55;3.03;;;;;;;26.52;7.29;101539.41;5031002;28;20041;-80
2021/04/08 07:25:28;;;;;;;9.10;2.95;;;;;;;27.11;7.68;101545.94;5027741;28;20049;-80
2021/04/08 07:28:36;;;;;;;15.90;2.53;;;;;;;28.21;6.41;101545.06;5025912;28;20511;-80
2021/04/08 07:31:30;;;;;;;18.45;3.10;;;;;;;26.11;6.92;101536.31;5028597;28;20044;-80
2021/04/08 07:35:10;;;;;;;15.98;2.90;;;;;;;26.30;7.07;101552.66;5028369;28;20060;-80
2021/04/08 07:37:56;;;;;;;7.47;2.28;;;;;;;25.86;7.60;101549.47;4981144;28;20174;-80
2021/04/08 07:40:55;;;;;;;6.88;2.30;;;;;;;24.80;7.81;101552.06;5027825;28;20052;-80
2021/04/08 07:43:55;;;;;;;15.85;2.80;;;;;;;26.92;6.98;101551.25;5030556;28;20043;-80
2021/04/08 07:46:43;;;;;;;15.95;4.85;;;;;;;25.18;8.14;101556.97;5027323;28;20049;-80
2021/04/08 07:49:31;;;;;;;23.27;5.78;;;;;;;26.06;7.89;101559.00;5031952;28;20052;-80
2021/04/08 07:52:29;;;;;;;21.52;3.25;;;;;;;24.69;8.30;101568.69;5029828;28;20052;-79
2021/04/08 07:55:21;;;;;;;24.98;5.45;;;;;;;25.74;8.45;101572.19;5022595;28;20041;-80
2021/04/08 07:58:16;;;;;;;22.67;4.60;;;;;;;24.51;8.46;101573.38;5029025;28;20041;-80
2021/04/08 08:01:01;;;;;;;25.08;5.35;;;;;;;28.30;6.63;101572.53;5028207;28;20534;-79
2021/04/08 08:03:46;;;;;;;26.33;5.63;;;;;;;25.70;8.28;101569.38;5029082;28;20044;-80
2021/04/08 08:06:36;;;;;;;29.90;4.70;;;;;;;26.64;8.34;101577.25;5034547;28;20053;-80
2021/04/08 08:09:24;;;;;;;13.15;5.32;;;;;;;22.72;10.84;101562.97;5032139;28;20068;-80
2021/04/08 08:12:10;;;;;;;22.70;4.57;;;;;;;24.27;10.59;101574.84;5029268;28;20053;-80
2021/04/08 08:15:12;;;;;;;20.27;4.47;;;;;;;25.30;8.66;101581.66;5032839;28;20068;-81
2021/04/08 08:17:58;;;;;;;25.15;6.05;;;;;;;24.39;9.46;101577.28;5031943;28;20044;-80
2021/04/08 08:20:46;;;;;;;22.50;4.80;;;;;;;26.53;8.46;101573.69;5030388;28;20048;-80
2021/04/08 08:23:35;;;;;;;20.63;4.68;;;;;;;26.15;8.58;101576.16;5031309;28;20065;-80
2021/04/08 08:26:35;;;;;;;22.38;4.13;;;;;;;27.38;8.18;101568.50;5030432;28;20061;-80
2021/04/08 08:29:26;;;;;;;11.73;3.60;;;;;;;27.90;7.49;101572.09;5033714;28;20045;-80
2021/04/08 08:32:12;;;;;;;24.50;4.47;;;;;;;27.52;7.52;101570.44;5032809;28;20412;-80
2021/04/08 08:34:57;;;;;;;20.63;4.18;;;;;;;27.74;7.83;101569.06;5028475;28;20048;-81
2021/04/08 08:37:42;;;;;;;17.42;2.75;;;;;;;25.85;7.43;101561.84;5032523;28;20064;-80
2021/04/08 08:40:27;;;;;;;21.67;3.17;;;;;;;28.91;7.19;101574.25;5032263;28;20045;-80
2021/04/08 08:43:14;;;;;;;8.05;3.13;;;;;;;27.90;7.35;101572.09;5030728;28;20052;-81
2021/04/08 08:46:00;;;;;;;18.30;3.70;;;;;;;27.48;7.75;101569.66;5033408;28;20044;-80
2021/04/08 08:48:45;;;;;;;18.77;3.33;;;;;;;29.88;6.51;101573.59;5031328;28;20044;-81
2021/04/08 08:51:32;;;;;;;8.20;3.00;;;;;;;28.30;7.34;101561.34;5029649;28;20519;-79
2021/04/08 08:54:18;;;;;;;14.20;3.20;;;;;;;27.21;7.67;101569.44;5034523;28;20052;-81
2021/04/08 08:57:05;;;;;;;7.07;3.15;;;;;;;29.60;7.33;101578.47;5030249;28;20117;-81
2021/04/08 08:59:51;;;;;;;4.45;1.17;;;;;;;31.24;3.66;101567.72;5029942;28;20049;-81
2021/04/08 09:02:37;;;;;;;16.98;1.90;;;;;;;29.67;5.25;101574.75;5033590;28;20044;-81
2021/04/08 09:05:24;;;;;;;7.68;1.65;;;;;;;30.35;4.86;101574.38;5031111;28;20044;-81
2021/04/08 09:08:14;;;;;;;9.75;1.50;;;;;;;30.89;4.05;101570.06;5027208;28;20040;-81
2021/04/08 09:10:42;;;;;;;9.85;2.13;;;;;;;29.31;5.80;101566.91;5063733;22;20040;-81
2021/04/08 09:13:27;;;;;;;7.28;1.90;;;;;;;30.69;3.85;101562.88;5047785;28;20040;-81
2021/04/08 09:16:15;;;;;;;6.80;1.75;;;;;;;31.13;4.10;101565.16;5046663;28;20043;-81
2021/04/08 09:19:01;;;;;;;6.38;1.77;;;;;;;30.43;4.24;101573.78;5044659;28;20048;-79
2021/04/08 09:21:49;;;;;;;3.13;1.42;;;;;;;30.39;3.68;101570.28;5047735;28;20040;-78
2021/04/08 09:24:44;;;;;;;15.15;1.70;;;;;;;24.16;8.83;101552.50;5046855;28;20108;-76
2021/04/08 09:27:29;;;;;;;4.75;1.73;;;;;;;22.83;9.54;101553.63;5043853;28;20056;-77
2021/04/08 09:30:32;;;;;;;15.40;2.17;;;;;;;21.61;10.98;101540.31;5044582;28;20133;-84
2021/04/08 09:33:17;;;;;;;7.28;2.55;;;;;;;20.48;11.58;101553.53;5048013;28;20064;-82
2021/04/08 09:36:26;;;;;;;7.50;1.88;;;;;;;20.36;11.42;101550.91;5049835;28;20045;-82
2021/04/08 09:39:12;;;;;;;9.43;1.63;;;;;;;19.96;12.13;101553.09;5046121;28;20044;-84
2021/04/08 09:42:01;;;;;;;6.50;1.85;;;;;;;19.95;12.04;101546.78;5044438;28;20064;-83
2021/04/08 09:44:46;;;;;;;11.98;2.55;;;;;;;19.07;11.91;101542.50;5046898;28;20044;-83
2021/04/08 09:47:34;;;;;;;9.55;1.60;;;;;;;18.89;11.87;101538.47;5049792;28;20044;-84
2021/04/08 09:50:52;;;;;;;48.78;2.83;;;;;;;18.76;12.10;101540.47;5045099;28;20057;-83
2021/04/08 09:53:36;;;;;;;4.57;1.70;;;;;;;25.08;6.76;101552.97;5048243;28;20036;-81
2021/04/08 09:56:47;;;;;;;4.47;2.28;;;;;;;27.56;5.21;101555.25;5044884;28;20520;-84
2021/04/08 09:59:56;;;;;;;14.40;2.45;;;;;;;27.84;5.61;101545.81;5045830;28;20064;-83
2021/04/08 10:03:00;;;;;;;3.15;1.75;;;;;;;29.74;4.98;101544.59;5044492;28;20048;-81
2021/04/08 10:05:45;;;;;;;2.00;1.17;;;;;;;30.26;4.54;101543.28;5045351;28;20070;-82
2021/04/08 10:08:36;;;;;;;4.15;1.67;;;;;;;29.01;5.21;101538.91;5043873;28;20528;-82
2021/04/08 10:11:26;;;;;;;2.38;1.55;;;;;;;31.21;4.44;101541.28;5049558;28;20049;-83
2021/04/08 10:14:23;;;;;;;5.80;1.55;;;;;;;31.55;4.08;101531.63;5064329;28;20516;-82
2021/04/08 10:17:11;;;;;;;3.95;1.35;;;;;;;31.71;3.70;101532.44;5042832;28;20048;-83
2021/04/08 10:19:56;;;;;;;3.42;1.20;;;;;;;30.91;3.87;101522.66;5044711;28;20425;-82
2021/04/08 10:22:44;;;;;;;5.13;1.30;;;;;;;30.43;4.50;101520.44;5048796;28;20048;-82
2021/04/08 10:25:33;;;;;;;58.40;3.40;;;;;;;32.55;3.82;101530.56;5041931;28;20041;-83
2021/04/08 10:28:17;;;;;;;20.42;1.83;;;;;;;32.69;3.58;101527.34;5046888;28;20040;-83
2021/04/08 10:31:19;;;;;;;76.65;5.60;;;;;;;30.68;3.56;101514.34;5046426;28;20048;-83
2021/04/08 10:34:05;;;;;;;14.55;3.60;;;;;;;31.28;3.94;101517.84;5043469;28;20528;-83
2021/04/08 10:36:57;;;;;;;9.52;1.10;;;;;;;31.06;3.79;101517.53;5047430;28;20047;-83
2021/04/08 10:39:42;;;;;;;3.80;1.27;;;;;;;31.11;3.61;101516.22;5044868;28;20048;-84
2021/04/08 10:42:27;;;;;;;57.08;4.95;;;;;;;30.67;3.70;101512.00;5043386;28;20043;-82
2021/04/08 10:45:13;;;;;;;6.45;1.45;;;;;;;30.88;3.57;101511.53;5046992;28;20406;-83
2021/04/08 10:47:59;;;;;;;23.13;2.55;;;;;;;30.27;3.76;101517.59;5041852;28;20044;-83
2021/04/08 10:50:44;;;;;;;6.55;2.00;;;;;;;31.31;3.27;101505.69;5043165;28;20410;-83
2021/04/08 10:53:29;;;;;;;9.48;2.00;;;;;;;32.06;3.61;101515.81;5047578;28;20421;-83
2021/04/08 10:56:16;;;;;;;4.03;1.02;;;;;;;32.92;3.09;101509.31;5044059;28;20048;-82
2021/04/08 10:59:21;;;;;;;28.98;1.77;;;;;;;32.28;3.82;101504.78;5042597;28;20532;-83
2021/04/08 11:02:29;;;;;;;6.40;1.58;;;;;;;33.07;3.89;101514.06;5064818;28;20630;-84
2021/04/08 11:05:25;;;;;;;5.28;1.77;;;;;;;33.45;3.43;101513.28;5042350;28;20039;-84
2021/04/08 11:08:14;;;;;;;8.52;1.90;;;;;;;34.88;2.88;101510.53;5057916;28;20043;-85
2021/04/08 11:10:59;;;;;;;18.50;2.33;;;;;;;32.39;4.34;101494.03;5058318;28;20048;-82
2021/04/08 11:13:47;;;;;;;29.85;1.83;;;;;;;33.22;4.60;101505.19;5049091;28;20397;-83
2021/04/08 11:16:37;;;;;;;29.13;2.22;;;;;;;31.06;5.53;101471.78;5052634;28;20401;-83
2021/04/08 11:19:22;;;;;;;40.47;2.75;;;;;;;31.94;5.17;101477.97;5054065;28;20540;-84
2021/04/08 11:22:14;;;;;;;36.10;3.75;;;;;;;32.03;5.08;101486.56;5051713;28;20123;-82
2021/04/08 11:25:00;;;;;;;36.47;3.13;;;;;;;31.28;5.34;101484.91;5055405;28;20044;-82
2021/04/08 11:27:52;;;;;;;6.55;1.35;;;;;;;31.06;5.72;101495.06;5054193;28;20044;-83
2021/04/08 11:30:40;;;;;;;16.40;1.75;;;;;;;32.23;5.35;101475.97;5052730;28;20040;-84
2021/04/08 11:33:27;;;;;;;7.78;1.65;;;;;;;32.95;5.28;101485.88;5052353;28;20052;-82
2021/04/08 11:36:19;;;;;;;45.08;2.35;;;;;;;31.09;6.50;101477.31;5050280;28;20044;-82
2021/04/08 11:39:12;;;;;;;4.85;0.90;;;;;;;32.97;5.89;101467.28;5063103;28;20047;-81
2021/04/08 11:42:14;;;;;;;9.07;2.22;;;;;;;33.20;5.42;101480.28;5055834;28;20047;-83
2021/04/08 11:45:24;;;;;;;47.78;3.45;;;;;;;31.76;5.93;101469.22;5061771;28;20040;-81
2021/04/08 11:48:12;;;;;;;129.70;7.68;;;;;;;31.24;6.57;101475.75;5056801;28;20032;-84
2021/04/08 11:51:15;;;;;;;10.23;1.67;;;;;;;31.23;6.54;101467.75;5056722;28;20043;-83
2021/04/08 11:54:20;;;;;;;11.63;2.30;;;;;;;30.25;7.05;101463.91;5060461;28;20047;-84
2021/04/08 11:57:09;;;;;;;10.07;1.15;;;;;;;31.37;6.81;101468.19;5051326;28;20049;-82
2021/04/08 12:00:13;;;;;;;75.63;6.50;;;;;;;32.19;6.52;101468.84;5048861;28;20101;-85
2021/04/08 12:03:12;;;;;;;3.35;1.05;;;;;;;32.83;6.23;101447.22;5048860;28;20048;-85
2021/04/08 12:06:09;;;;;;;119.03;6.72;;;;;;;31.45;7.14;101460.34;5046935;28;20036;-84
2021/04/08 12:08:55;;;;;;;17.45;3.45;;;;;;;32.53;6.38;101459.78;5044140;28;20055;-84
2021/04/08 12:11:53;;;;;;;9.85;2.60;;;;;;;31.89;6.98;101456.00;5043916;28;20056;-82
2021/04/08 12:14:51;;;;;;;8.80;1.67;;;;;;;33.36;6.06;101471.66;5043763;28;20048;-84
2021/04/08 12:17:38;;;;;;;14.50;2.45;;;;;;;32.04;6.63;101450.78;5060026;28;20040;-84
2021/04/08 12:20:24;;;;;;;4.30;1.10;;;;;;;34.91;4.82;101441.75;5057558;28;20052;-84
2021/04/08 12:23:13;;;;;;;18.73;1.75;;;;;;;33.38;6.28;101440.19;5060144;28;20527;-83
2021/04/08 12:25:58;;;;;;;57.53;3.28;;;;;;;32.83;6.08;101445.19;5058477;28;20044;-84
2021/04/08 12:28:43;;;;;;;10.35;1.02;;;;;;;32.68;6.22;101446.88;5051253;28;20063;-83
2021/04/08 12:31:28;;;;;;;6.90;1.23;;;;;;;33.25;6.24;101448.69;5050666;28;20059;-83
2021/04/08 12:34:13;;;;;;;10.50;1.30;;;;;;;31.96;7.23;101433.28;5043706;28;20052;-84
2021/04/08 12:36:58;;;;;;;6.38;1.05;;;;;;;30.53;7.71;101424.00;5049159;28;20056;-85
2021/04/08 12:39:45;;;;;;;43.83;4.50;;;;;;;33.81;6.01;101434.66;5055778;28;20044;-84
2021/04/08 12:42:30;;;;;;;5.32;1.42;;;;;;;33.04;5.91;101423.97;5057379;28;20048;-86
2021/04/08 12:45:15;;;;;;;6.72;1.17;;;;;;;32.11;6.92;101420.41;5053117;28;20052;-83
2021/04/08 12:48:03;;;;;;;6.55;1.40;;;;;;;32.11;7.03;101422.44;5055263;28;20039;-84
2021/04/08 12:50:49;;;;;;;15.20;1.83;;;;;;;32.32;6.98;101412.56;5053981;28;20047;-84
2021/04/08 12:53:33;;;;;;;13.90;2.25;;;;;;;32.63;6.96;101413.59;5045078;28;20420;-84
2021/04/08 12:56:18;;;;;;;14.70;2.20;;;;;;;30.11;7.75;101399.66;5049724;28;20051;-84
2021/04/08 12:59:03;;;;;;;45.33;2.45;;;;;;;30.82;7.88;101417.75;5048959;28;20040;-85
2021/04/08 13:01:48;;;;;;;2.75;1.48;;;;;;;31.30;7.49;101408.53;5047535;28;20048;-84
2021/04/08 13:04:33;;;;;;;10.90;1.40;;;;;;;30.15;8.51;101422.81;5048279;28;20043;-83
2021/04/08 13:07:18;;;;;;;11.43;1.65;;;;;;;30.24;8.10;101422.22;5048200;28;20048;-85
2021/04/08 13:10:04;;;;;;;14.65;1.90;;;;;;;28.80;8.20;101422.38;5046645;28;20052;-82
2021/04/08 13:12:50;;;;;;;3.08;1.00;;;;;;;30.38;7.83;101411.50;5047425;28;20048;-80